sensor_id;sensor_type;location;lat;lon;timestamp;temperature;humidity
4604;DHT22;2314;48.272;11.562;2023-02-11T00:02:01;-4.20;99.90
4604;DHT22;2314;48.272;11.562;2023-02-11T00:04:29;-4.20;99.90
4604;DHT22;2314;48.272;11.562;2023-02-11T00:06:58;-4.20;99.90
4604;DHT22;2314;48.272;11.562;2023-02-11T00:09:26;-4.30;99.90
4604;DHT22;2314;48.272;11.562;2023-02-11T00:11:53;-4.30;99.90
4604;DHT22;2314;48.272;11.562;2023-02-11T00:14:20;-4.30;99.90
4604;DHT22;2314;48.272;11.562;2023-02-11T00:16:47;-4.40;99.90
4604;DHT22;2314;48.272;11.562;2023-02-11T00:19:14;-4.30;99.90
4604;DHT22;2314;48.272;11.562;2023-02-11T00:21:41;-4.40;99.90
4604;DHT22;2314;48.272;11.562;2023-02-11T00:24:09;-4.30;99.90
4604;DHT22;2314;48.272;11.562;2023-02-11T00:26:36;-4.30;99.90
4604;DHT22;2314;48.272;11.562;2023-02-11T00:29:04;-4.30;99.90
4604;DHT22;2314;48.272;11.562;2023-02-11T00:31:32;-4.30;99.90
4604;DHT22;2314;48.272;11.562;2023-02-11T00:34:00;-4.30;99.90
4604;DHT22;2314;48.272;11.562;2023-02-11T00:36:28;-4.30;99.90
4604;DHT22;2314;48.272;11.562;2023-02-11T00:38:56;-4.40;99.90
4604;DHT22;2314;48.272;11.562;2023-02-11T00:41:25;-4.40;99.90
4604;DHT22;2314;48.272;11.562;2023-02-11T00:43:52;-4.40;99.90
4604;DHT22;2314;48.272;11.562;2023-02-11T00:46:19;-4.50;99.90
4604;DHT22;2314;48.272;11.562;2023-02-11T00:48:47;-4.40;99.90
4604;DHT22;2314;48.272;11.562;2023-02-11T00:51:14;-4.50;99.90
4604;DHT22;2314;48.272;11.562;2023-02-11T00:53:44;-4.60;99.90
4604;DHT22;2314;48.272;11.562;2023-02-11T00:56:11;-4.60;99.90
4604;DHT22;2314;48.272;11.562;2023-02-11T00:58:39;-4.60;99.90
4604;DHT22;2314;48.272;11.562;2023-02-11T01:01:06;-4.60;99.90
4604;DHT22;2314;48.272;11.562;2023-02-11T01:03:33;-4.60;99.90
4604;DHT22;2314;48.272;11.562;2023-02-11T01:06:00;-4.60;99.90
4604;DHT22;2314;48.272;11.562;2023-02-11T01:08:27;-4.60;99.90
4604;DHT22;2314;48.272;11.562;2023-02-11T01:10:55;-4.60;99.90
4604;DHT22;2314;48.272;11.562;2023-02-11T01:13:24;-4.60;99.90
4604;DHT22;2314;48.272;11.562;2023-02-11T01:15:54;-4.60;99.90
4604;DHT22;2314;48.272;11.562;2023-02-11T01:18:21;-4.60;99.90
4604;DHT22;2314;48.272;11.562;2023-02-11T01:20:50;-4.60;99.90
4604;DHT22;2314;48.272;11.562;2023-02-11T01:23:17;-4.60;99.90
4604;DHT22;2314;48.272;11.562;2023-02-11T01:25:45;-4.60;99.90
4604;DHT22;2314;48.272;11.562;2023-02-11T01:28:15;-4.70;99.90
4604;DHT22;2314;48.272;11.562;2023-02-11T01:30:43;-4.70;99.90
4604;DHT22;2314;48.272;11.562;2023-02-11T01:33:12;-4.70;99.90
4604;DHT22;2314;48.272;11.562;2023-02-11T01:35:39;-4.70;99.90
4604;DHT22;2314;48.272;11.562;2023-02-11T01:38:07;-4.70;99.90
4604;DHT22;2314;48.272;11.562;2023-02-11T01:40:39;-4.70;99.90
4604;DHT22;2314;48.272;11.562;2023-02-11T01:43:09;-4.70;99.90
4604;DHT22;2314;48.272;11.562;2023-02-11T01:45:56;-4.70;99.90
4604;DHT22;2314;48.272;11.562;2023-02-11T01:48:29;-4.70;99.90
4604;DHT22;2314;48.272;11.562;2023-02-11T01:51:03;-4.70;99.90
4604;DHT22;2314;48.272;11.562;2023-02-11T01:53:33;-4.70;99.90
4604;DHT22;2314;48.272;11.562;2023-02-11T01:56:19;-4.70;99.90
4604;DHT22;2314;48.272;11.562;2023-02-11T01:59:07;-4.70;99.90
4604;DHT22;2314;48.272;11.562;2023-02-11T02:01:39;-4.70;99.90
4604;DHT22;2314;48.272;11.562;2023-02-11T02:04:09;-4.70;99.90
4604;DHT22;2314;48.272;11.562;2023-02-11T02:06:42;-4.70;99.90
4604;DHT22;2314;48.272;11.562;2023-02-11T02:09:16;-4.80;99.90
4604;DHT22;2314;48.272;11.562;2023-02-11T02:11:46;-4.80;99.90
4604;DHT22;2314;48.272;11.562;2023-02-11T02:14:13;-4.80;99.90
4604;DHT22;2314;48.272;11.562;2023-02-11T02:16:40;-4.80;99.90
4604;DHT22;2314;48.272;11.562;2023-02-11T02:25:51;-4.90;99.90
4604;DHT22;2314;48.272;11.562;2023-02-11T02:32:39;-4.80;99.90
4604;DHT22;2314;48.272;11.562;2023-02-11T02:35:18;-4.70;99.90
4604;DHT22;2314;48.272;11.562;2023-02-11T02:37:55;-4.80;99.90
4604;DHT22;2314;48.272;11.562;2023-02-11T02:40:28;-4.70;99.90
4604;DHT22;2314;48.272;11.562;2023-02-11T02:42:57;-4.80;99.90
4604;DHT22;2314;48.272;11.562;2023-02-11T02:45:26;-4.80;99.90
4604;DHT22;2314;48.272;11.562;2023-02-11T02:47:55;-4.80;99.90
4604;DHT22;2314;48.272;11.562;2023-02-11T02:50:27;-4.80;99.90
4604;DHT22;2314;48.272;11.562;2023-02-11T02:53:11;-4.70;99.90
4604;DHT22;2314;48.272;11.562;2023-02-11T02:55:59;-4.70;99.90
4604;DHT22;2314;48.272;11.562;2023-02-11T02:58:57;-4.60;99.90
4604;DHT22;2314;48.272;11.562;2023-02-11T03:01:38;-4.60;99.90
4604;DHT22;2314;48.272;11.562;2023-02-11T03:04:17;-4.60;99.90
4604;DHT22;2314;48.272;11.562;2023-02-11T03:06:52;-4.50;99.90
4604;DHT22;2314;48.272;11.562;2023-02-11T03:09:26;-4.40;99.90
4604;DHT22;2314;48.272;11.562;2023-02-11T03:11:56;-4.40;99.90
4604;DHT22;2314;48.272;11.562;2023-02-11T03:14:25;-4.30;99.90
4604;DHT22;2314;48.272;11.562;2023-02-11T03:16:56;-4.30;99.90
4604;DHT22;2314;48.272;11.562;2023-02-11T03:19:28;-4.30;99.90
4604;DHT22;2314;48.272;11.562;2023-02-11T03:21:56;-4.30;99.90
4604;DHT22;2314;48.272;11.562;2023-02-11T03:24:28;-4.30;99.90
4604;DHT22;2314;48.272;11.562;2023-02-11T03:26:58;-4.20;99.90
4604;DHT22;2314;48.272;11.562;2023-02-11T03:29:32;-4.10;99.90
4604;DHT22;2314;48.272;11.562;2023-02-11T03:32:04;-4.20;99.90
4604;DHT22;2314;48.272;11.562;2023-02-11T03:34:42;-4.10;99.90
4604;DHT22;2314;48.272;11.562;2023-02-11T03:37:14;-4.20;99.90
4604;DHT22;2314;48.272;11.562;2023-02-11T03:39:46;-4.20;99.90
4604;DHT22;2314;48.272;11.562;2023-02-11T03:42:17;-4.20;99.90
4604;DHT22;2314;48.272;11.562;2023-02-11T03:44:48;-4.20;99.90
4604;DHT22;2314;48.272;11.562;2023-02-11T03:47:20;-4.30;99.90
4604;DHT22;2314;48.272;11.562;2023-02-11T03:49:51;-4.30;99.90
4604;DHT22;2314;48.272;11.562;2023-02-11T03:52:21;-4.30;99.90
4604;DHT22;2314;48.272;11.562;2023-02-11T03:54:52;-4.30;99.90
4604;DHT22;2314;48.272;11.562;2023-02-11T03:57:22;-4.40;99.90
4604;DHT22;2314;48.272;11.562;2023-02-11T03:59:54;-4.40;99.90
4604;DHT22;2314;48.272;11.562;2023-02-11T04:02:24;-4.40;99.90
4604;DHT22;2314;48.272;11.562;2023-02-11T04:04:55;-4.40;99.90
4604;DHT22;2314;48.272;11.562;2023-02-11T04:07:22;-4.40;99.90
4604;DHT22;2314;48.272;11.562;2023-02-11T04:09:49;-4.40;99.90
4604;DHT22;2314;48.272;11.562;2023-02-11T04:12:16;-4.40;99.90
4604;DHT22;2314;48.272;11.562;2023-02-11T04:14:43;-4.40;99.90
4604;DHT22;2314;48.272;11.562;2023-02-11T04:17:11;-4.30;99.90
4604;DHT22;2314;48.272;11.562;2023-02-11T04:19:38;-4.30;99.90
4604;DHT22;2314;48.272;11.562;2023-02-11T04:22:07;-4.20;99.90
4604;DHT22;2314;48.272;11.562;2023-02-11T04:24:34;-4.20;99.90
4604;DHT22;2314;48.272;11.562;2023-02-11T04:27:01;-4.20;99.90
4604;DHT22;2314;48.272;11.562;2023-02-11T04:29:29;-4.20;99.90
4604;DHT22;2314;48.272;11.562;2023-02-11T04:31:57;-4.10;99.90
4604;DHT22;2314;48.272;11.562;2023-02-11T04:34:24;-4.10;99.90
4604;DHT22;2314;48.272;11.562;2023-02-11T04:36:51;-4.20;99.90
4604;DHT22;2314;48.272;11.562;2023-02-11T04:39:19;-4.20;99.90
4604;DHT22;2314;48.272;11.562;2023-02-11T04:41:46;-4.20;99.90
4604;DHT22;2314;48.272;11.562;2023-02-11T04:44:13;-4.20;99.90
4604;DHT22;2314;48.272;11.562;2023-02-11T04:46:40;-4.20;99.90
4604;DHT22;2314;48.272;11.562;2023-02-11T04:49:08;-4.20;99.90
4604;DHT22;2314;48.272;11.562;2023-02-11T04:51:36;-4.20;99.90
4604;DHT22;2314;48.272;11.562;2023-02-11T04:54:04;-4.20;99.90
4604;DHT22;2314;48.272;11.562;2023-02-11T04:56:32;-4.20;99.90
4604;DHT22;2314;48.272;11.562;2023-02-11T04:58:59;-4.20;99.90
4604;DHT22;2314;48.272;11.562;2023-02-11T05:01:26;-4.10;99.90
4604;DHT22;2314;48.272;11.562;2023-02-11T05:03:53;-4.10;99.90
4604;DHT22;2314;48.272;11.562;2023-02-11T05:06:21;-4.00;99.90
4604;DHT22;2314;48.272;11.562;2023-02-11T05:08:48;-3.90;99.90
4604;DHT22;2314;48.272;11.562;2023-02-11T05:11:17;-3.90;99.90
4604;DHT22;2314;48.272;11.562;2023-02-11T05:13:46;-3.70;99.90
4604;DHT22;2314;48.272;11.562;2023-02-11T05:16:14;-3.60;99.90
4604;DHT22;2314;48.272;11.562;2023-02-11T05:18:43;-3.50;99.90
4604;DHT22;2314;48.272;11.562;2023-02-11T05:21:13;-3.40;99.90
4604;DHT22;2314;48.272;11.562;2023-02-11T05:23:41;-3.30;99.90
4604;DHT22;2314;48.272;11.562;2023-02-11T05:26:09;-3.20;99.90
4604;DHT22;2314;48.272;11.562;2023-02-11T05:28:37;-3.10;99.90
4604;DHT22;2314;48.272;11.562;2023-02-11T05:31:06;-3.00;99.90
4604;DHT22;2314;48.272;11.562;2023-02-11T05:33:34;-2.90;99.90
4604;DHT22;2314;48.272;11.562;2023-02-11T05:36:03;-2.80;99.90
4604;DHT22;2314;48.272;11.562;2023-02-11T05:38:31;-2.70;99.90
4604;DHT22;2314;48.272;11.562;2023-02-11T05:40:58;-2.60;99.90
4604;DHT22;2314;48.272;11.562;2023-02-11T05:43:26;-2.50;99.90
4604;DHT22;2314;48.272;11.562;2023-02-11T05:45:53;-2.40;99.90
4604;DHT22;2314;48.272;11.562;2023-02-11T05:48:22;-2.40;99.90
4604;DHT22;2314;48.272;11.562;2023-02-11T05:50:49;-2.40;99.90
4604;DHT22;2314;48.272;11.562;2023-02-11T05:53:16;-2.30;99.90
4604;DHT22;2314;48.272;11.562;2023-02-11T05:55:43;-2.30;99.90
4604;DHT22;2314;48.272;11.562;2023-02-11T05:58:10;-2.20;99.90
4604;DHT22;2314;48.272;11.562;2023-02-11T06:00:37;-2.20;99.90
4604;DHT22;2314;48.272;11.562;2023-02-11T06:03:04;-2.20;99.90
4604;DHT22;2314;48.272;11.562;2023-02-11T06:05:33;-2.20;99.90
4604;DHT22;2314;48.272;11.562;2023-02-11T06:08:01;-2.20;99.90
4604;DHT22;2314;48.272;11.562;2023-02-11T06:10:28;-2.10;99.90
4604;DHT22;2314;48.272;11.562;2023-02-11T06:12:55;-2.10;99.90
4604;DHT22;2314;48.272;11.562;2023-02-11T06:15:22;-2.10;99.90
4604;DHT22;2314;48.272;11.562;2023-02-11T06:17:49;-2.00;99.90
4604;DHT22;2314;48.272;11.562;2023-02-11T06:20:16;-2.00;99.90
4604;DHT22;2314;48.272;11.562;2023-02-11T06:22:44;-2.00;99.90
4604;DHT22;2314;48.272;11.562;2023-02-11T06:25:12;-2.00;99.90
4604;DHT22;2314;48.272;11.562;2023-02-11T06:27:39;-2.00;99.90
4604;DHT22;2314;48.272;11.562;2023-02-11T06:30:08;-2.00;99.90
4604;DHT22;2314;48.272;11.562;2023-02-11T06:32:36;-1.90;99.90
4604;DHT22;2314;48.272;11.562;2023-02-11T06:35:03;-1.90;99.90
4604;DHT22;2314;48.272;11.562;2023-02-11T06:37:30;-1.90;99.90
4604;DHT22;2314;48.272;11.562;2023-02-11T06:39:58;-1.90;99.90
4604;DHT22;2314;48.272;11.562;2023-02-11T06:42:25;-1.90;99.90
4604;DHT22;2314;48.272;11.562;2023-02-11T06:44:52;-1.80;99.90
4604;DHT22;2314;48.272;11.562;2023-02-11T06:47:19;-1.70;99.90
4604;DHT22;2314;48.272;11.562;2023-02-11T06:49:46;-1.70;99.90
4604;DHT22;2314;48.272;11.562;2023-02-11T06:52:13;-1.70;99.90
4604;DHT22;2314;48.272;11.562;2023-02-11T06:54:40;-1.60;99.90
4604;DHT22;2314;48.272;11.562;2023-02-11T06:57:08;-1.60;99.90
4604;DHT22;2314;48.272;11.562;2023-02-11T06:59:35;-1.50;99.90
4604;DHT22;2314;48.272;11.562;2023-02-11T07:02:02;-1.50;99.90
4604;DHT22;2314;48.272;11.562;2023-02-11T07:04:29;-1.40;99.90
4604;DHT22;2314;48.272;11.562;2023-02-11T07:06:56;-1.40;99.90
4604;DHT22;2314;48.272;11.562;2023-02-11T07:09:23;-1.30;99.90
4604;DHT22;2314;48.272;11.562;2023-02-11T07:11:50;-1.30;99.90
4604;DHT22;2314;48.272;11.562;2023-02-11T07:14:19;-1.30;99.90
4604;DHT22;2314;48.272;11.562;2023-02-11T07:16:46;-1.20;99.90
4604;DHT22;2314;48.272;11.562;2023-02-11T07:19:13;-1.20;99.90
4604;DHT22;2314;48.272;11.562;2023-02-11T07:21:40;-1.20;99.90
4604;DHT22;2314;48.272;11.562;2023-02-11T07:24:08;-1.10;99.90
4604;DHT22;2314;48.272;11.562;2023-02-11T07:26:35;-1.10;99.90
4604;DHT22;2314;48.272;11.562;2023-02-11T07:29:02;-1.10;99.90
4604;DHT22;2314;48.272;11.562;2023-02-11T07:31:31;-1.10;99.90
4604;DHT22;2314;48.272;11.562;2023-02-11T07:34:00;-1.00;99.90
4604;DHT22;2314;48.272;11.562;2023-02-11T07:36:28;-0.90;99.90
4604;DHT22;2314;48.272;11.562;2023-02-11T07:38:56;-0.80;99.90
4604;DHT22;2314;48.272;11.562;2023-02-11T07:41:24;-0.80;99.90
4604;DHT22;2314;48.272;11.562;2023-02-11T07:43:52;-0.80;99.90
4604;DHT22;2314;48.272;11.562;2023-02-11T07:46:20;-0.70;99.90
4604;DHT22;2314;48.272;11.562;2023-02-11T07:48:49;-0.60;99.90
4604;DHT22;2314;48.272;11.562;2023-02-11T07:51:18;-0.40;99.90
4604;DHT22;2314;48.272;11.562;2023-02-11T07:53:46;-0.30;99.90
4604;DHT22;2314;48.272;11.562;2023-02-11T07:56:16;-0.10;99.90
4604;DHT22;2314;48.272;11.562;2023-02-11T07:58:43;0.00;99.90
4604;DHT22;2314;48.272;11.562;2023-02-11T08:01:13;0.20;99.90
4604;DHT22;2314;48.272;11.562;2023-02-11T08:03:41;0.30;99.90
4604;DHT22;2314;48.272;11.562;2023-02-11T08:06:11;0.40;99.90
4604;DHT22;2314;48.272;11.562;2023-02-11T08:08:39;0.60;99.90
4604;DHT22;2314;48.272;11.562;2023-02-11T08:11:07;0.70;99.90
4604;DHT22;2314;48.272;11.562;2023-02-11T08:13:34;0.90;99.90
4604;DHT22;2314;48.272;11.562;2023-02-11T08:16:02;1.00;99.90
4604;DHT22;2314;48.272;11.562;2023-02-11T08:18:30;1.10;99.90
4604;DHT22;2314;48.272;11.562;2023-02-11T08:21:03;1.10;99.90
4604;DHT22;2314;48.272;11.562;2023-02-11T08:23:32;1.10;99.90
4604;DHT22;2314;48.272;11.562;2023-02-11T08:26:00;1.00;99.90
4604;DHT22;2314;48.272;11.562;2023-02-11T08:28:28;1.00;99.90
4604;DHT22;2314;48.272;11.562;2023-02-11T08:30:55;1.10;99.90
4604;DHT22;2314;48.272;11.562;2023-02-11T08:33:22;1.00;99.90
4604;DHT22;2314;48.272;11.562;2023-02-11T08:35:49;1.10;99.90
4604;DHT22;2314;48.272;11.562;2023-02-11T08:38:16;1.20;99.90
4604;DHT22;2314;48.272;11.562;2023-02-11T08:40:44;1.20;99.90
4604;DHT22;2314;48.272;11.562;2023-02-11T08:43:11;1.30;99.90
4604;DHT22;2314;48.272;11.562;2023-02-11T08:45:38;1.40;99.90
4604;DHT22;2314;48.272;11.562;2023-02-11T08:48:05;1.50;99.90
4604;DHT22;2314;48.272;11.562;2023-02-11T08:50:32;1.60;99.90
4604;DHT22;2314;48.272;11.562;2023-02-11T08:53:03;1.80;99.90
4604;DHT22;2314;48.272;11.562;2023-02-11T08:55:30;2.00;99.90
4604;DHT22;2314;48.272;11.562;2023-02-11T08:57:58;2.20;99.90
4604;DHT22;2314;48.272;11.562;2023-02-11T09:00:25;2.30;99.90
4604;DHT22;2314;48.272;11.562;2023-02-11T09:02:52;2.50;99.90
4604;DHT22;2314;48.272;11.562;2023-02-11T09:05:19;2.50;99.90
4604;DHT22;2314;48.272;11.562;2023-02-11T09:07:47;2.50;99.90
4604;DHT22;2314;48.272;11.562;2023-02-11T09:10:14;2.50;99.90
4604;DHT22;2314;48.272;11.562;2023-02-11T09:12:41;2.50;99.90
4604;DHT22;2314;48.272;11.562;2023-02-11T09:15:10;2.60;99.90
4604;DHT22;2314;48.272;11.562;2023-02-11T09:17:37;2.60;99.90
4604;DHT22;2314;48.272;11.562;2023-02-11T09:20:04;2.60;99.90
4604;DHT22;2314;48.272;11.562;2023-02-11T09:22:32;2.70;99.90
4604;DHT22;2314;48.272;11.562;2023-02-11T09:24:59;2.70;99.90
4604;DHT22;2314;48.272;11.562;2023-02-11T09:27:26;2.70;99.90
4604;DHT22;2314;48.272;11.562;2023-02-11T09:29:53;2.80;99.90
4604;DHT22;2314;48.272;11.562;2023-02-11T09:32:22;2.80;99.90
4604;DHT22;2314;48.272;11.562;2023-02-11T09:34:49;2.90;99.90
4604;DHT22;2314;48.272;11.562;2023-02-11T09:37:16;3.10;99.90
4604;DHT22;2314;48.272;11.562;2023-02-11T09:39:43;3.20;99.90
4604;DHT22;2314;48.272;11.562;2023-02-11T09:42:39;3.20;99.90
4604;DHT22;2314;48.272;11.562;2023-02-11T09:45:13;3.30;99.90
4604;DHT22;2314;48.272;11.562;2023-02-11T09:47:51;3.40;99.90
4604;DHT22;2314;48.272;11.562;2023-02-11T09:50:24;3.40;99.90
4604;DHT22;2314;48.272;11.562;2023-02-11T09:52:57;3.20;99.90
4604;DHT22;2314;48.272;11.562;2023-02-11T09:55:29;3.30;99.90
4604;DHT22;2314;48.272;11.562;2023-02-11T09:58:00;3.40;99.90
4604;DHT22;2314;48.272;11.562;2023-02-11T10:00:33;4.10;99.90
4604;DHT22;2314;48.272;11.562;2023-02-11T10:03:19;4.50;99.90
4604;DHT22;2314;48.272;11.562;2023-02-11T10:06:06;4.80;99.90
4604;DHT22;2314;48.272;11.562;2023-02-11T10:08:47;4.90;99.90
4604;DHT22;2314;48.272;11.562;2023-02-11T10:11:25;4.90;99.90
4604;DHT22;2314;48.272;11.562;2023-02-11T10:14:04;4.90;99.90
4604;DHT22;2314;48.272;11.562;2023-02-11T10:16:50;4.70;99.90
4604;DHT22;2314;48.272;11.562;2023-02-11T10:19:39;4.50;99.90
4604;DHT22;2314;48.272;11.562;2023-02-11T10:22:17;4.40;99.90
4604;DHT22;2314;48.272;11.562;2023-02-11T10:24:50;4.40;99.90
4604;DHT22;2314;48.272;11.562;2023-02-11T10:27:23;4.80;99.90
4604;DHT22;2314;48.272;11.562;2023-02-11T10:29:57;5.00;99.90
4604;DHT22;2314;48.272;11.562;2023-02-11T10:32:37;5.10;99.90
4604;DHT22;2314;48.272;11.562;2023-02-11T10:35:13;5.20;99.90
4604;DHT22;2314;48.272;11.562;2023-02-11T10:37:42;5.20;99.90
4604;DHT22;2314;48.272;11.562;2023-02-11T10:40:13;5.40;99.90
4604;DHT22;2314;48.272;11.562;2023-02-11T10:42:44;5.60;99.90
4604;DHT22;2314;48.272;11.562;2023-02-11T10:45:18;5.90;99.90
4604;DHT22;2314;48.272;11.562;2023-02-11T10:47:49;6.10;99.90
4604;DHT22;2314;48.272;11.562;2023-02-11T10:50:22;6.10;99.90
4604;DHT22;2314;48.272;11.562;2023-02-11T10:53:08;6.00;99.90
4604;DHT22;2314;48.272;11.562;2023-02-11T10:55:37;6.00;99.90
4604;DHT22;2314;48.272;11.562;2023-02-11T10:58:05;5.80;99.90
4604;DHT22;2314;48.272;11.562;2023-02-11T11:00:34;5.70;99.90
4604;DHT22;2314;48.272;11.562;2023-02-11T11:03:05;5.60;99.90
4604;DHT22;2314;48.272;11.562;2023-02-11T11:05:48;5.60;99.90
4604;DHT22;2314;48.272;11.562;2023-02-11T11:08:16;5.60;99.90
4604;DHT22;2314;48.272;11.562;2023-02-11T11:10:46;5.60;99.90
4604;DHT22;2314;48.272;11.562;2023-02-11T11:13:26;5.80;99.90
4604;DHT22;2314;48.272;11.562;2023-02-11T11:16:26;5.90;99.90
4604;DHT22;2314;48.272;11.562;2023-02-11T11:19:19;5.90;99.90
4604;DHT22;2314;48.272;11.562;2023-02-11T11:21:49;5.80;99.90
4604;DHT22;2314;48.272;11.562;2023-02-11T11:24:20;5.80;99.90
4604;DHT22;2314;48.272;11.562;2023-02-11T11:26:50;5.90;99.90
4604;DHT22;2314;48.272;11.562;2023-02-11T11:29:22;5.90;99.90
4604;DHT22;2314;48.272;11.562;2023-02-11T11:31:53;5.90;99.90
4604;DHT22;2314;48.272;11.562;2023-02-11T11:34:26;6.50;99.90
4604;DHT22;2314;48.272;11.562;2023-02-11T11:36:58;7.10;99.90
4604;DHT22;2314;48.272;11.562;2023-02-11T11:39:29;7.80;99.90
4604;DHT22;2314;48.272;11.562;2023-02-11T11:41:58;7.70;99.90
4604;DHT22;2314;48.272;11.562;2023-02-11T11:44:31;7.90;99.90
4604;DHT22;2314;48.272;11.562;2023-02-11T11:47:18;7.60;99.90
4604;DHT22;2314;48.272;11.562;2023-02-11T11:50:00;7.20;99.90
4604;DHT22;2314;48.272;11.562;2023-02-11T11:52:43;7.00;99.90
4604;DHT22;2314;48.272;11.562;2023-02-11T11:55:17;6.90;99.90
4604;DHT22;2314;48.272;11.562;2023-02-11T11:57:47;6.80;99.90
4604;DHT22;2314;48.272;11.562;2023-02-11T12:00:17;6.70;99.90
4604;DHT22;2314;48.272;11.562;2023-02-11T12:03:11;6.70;99.90
4604;DHT22;2314;48.272;11.562;2023-02-11T12:06:08;6.70;99.90
4604;DHT22;2314;48.272;11.562;2023-02-11T12:08:57;6.90;99.90
4604;DHT22;2314;48.272;11.562;2023-02-11T12:11:35;6.70;99.90
4604;DHT22;2314;48.272;11.562;2023-02-11T12:14:20;6.60;99.90
4604;DHT22;2314;48.272;11.562;2023-02-11T12:16:58;6.70;99.90
4604;DHT22;2314;48.272;11.562;2023-02-11T12:22:50;7.10;99.90
4604;DHT22;2314;48.272;11.562;2023-02-11T12:25:29;7.30;99.90
4604;DHT22;2314;48.272;11.562;2023-02-11T12:28:13;7.60;99.90
4604;DHT22;2314;48.272;11.562;2023-02-11T12:31:06;7.50;99.90
4604;DHT22;2314;48.272;11.562;2023-02-11T12:34:13;7.50;99.90
4604;DHT22;2314;48.272;11.562;2023-02-11T12:37:03;7.30;99.90
4604;DHT22;2314;48.272;11.562;2023-02-11T12:39:41;7.10;99.90
4604;DHT22;2314;48.272;11.562;2023-02-11T12:42:43;7.00;99.90
4604;DHT22;2314;48.272;11.562;2023-02-11T12:45:52;6.80;99.90
4604;DHT22;2314;48.272;11.562;2023-02-11T12:48:48;6.40;99.90
4604;DHT22;2314;48.272;11.562;2023-02-11T12:51:54;6.10;99.90
4604;DHT22;2314;48.272;11.562;2023-02-11T12:54:36;5.80;99.90
4604;DHT22;2314;48.272;11.562;2023-02-11T12:57:07;6.00;99.90
4604;DHT22;2314;48.272;11.562;2023-02-11T12:59:46;6.40;99.90
4604;DHT22;2314;48.272;11.562;2023-02-11T13:02:28;6.50;99.90
4604;DHT22;2314;48.272;11.562;2023-02-11T13:05:03;6.50;99.90
4604;DHT22;2314;48.272;11.562;2023-02-11T13:07:35;6.70;99.90
4604;DHT22;2314;48.272;11.562;2023-02-11T13:10:15;7.00;99.90
4604;DHT22;2314;48.272;11.562;2023-02-11T13:12:51;7.10;99.90
4604;DHT22;2314;48.272;11.562;2023-02-11T13:15:40;7.40;99.90
4604;DHT22;2314;48.272;11.562;2023-02-11T13:21:28;7.80;99.90
4604;DHT22;2314;48.272;11.562;2023-02-11T13:24:40;8.00;99.90
4604;DHT22;2314;48.272;11.562;2023-02-11T13:27:18;7.80;99.90
4604;DHT22;2314;48.272;11.562;2023-02-11T13:30:17;7.60;99.90
4604;DHT22;2314;48.272;11.562;2023-02-11T13:33:20;7.50;99.90
4604;DHT22;2314;48.272;11.562;2023-02-11T13:36:21;7.50;99.90
4604;DHT22;2314;48.272;11.562;2023-02-11T13:39:03;7.40;99.90
4604;DHT22;2314;48.272;11.562;2023-02-11T13:41:35;7.30;99.90
4604;DHT22;2314;48.272;11.562;2023-02-11T13:44:22;7.40;99.90
4604;DHT22;2314;48.272;11.562;2023-02-11T13:46:55;7.40;99.90
4604;DHT22;2314;48.272;11.562;2023-02-11T13:49:30;7.30;99.90
4604;DHT22;2314;48.272;11.562;2023-02-11T13:52:00;7.30;99.90
4604;DHT22;2314;48.272;11.562;2023-02-11T13:54:33;7.30;99.90
4604;DHT22;2314;48.272;11.562;2023-02-11T13:57:26;7.60;99.90
4604;DHT22;2314;48.272;11.562;2023-02-11T13:59:58;7.70;99.90
4604;DHT22;2314;48.272;11.562;2023-02-11T14:02:31;7.80;99.90
4604;DHT22;2314;48.272;11.562;2023-02-11T14:05:26;7.90;99.90
4604;DHT22;2314;48.272;11.562;2023-02-11T14:08:20;7.90;99.90
4604;DHT22;2314;48.272;11.562;2023-02-11T14:11:45;7.80;99.90
4604;DHT22;2314;48.272;11.562;2023-02-11T14:14:22;7.70;99.90
4604;DHT22;2314;48.272;11.562;2023-02-11T14:17:26;7.60;99.90
4604;DHT22;2314;48.272;11.562;2023-02-11T14:19:55;7.50;99.90
4604;DHT22;2314;48.272;11.562;2023-02-11T14:22:25;7.40;99.90
4604;DHT22;2314;48.272;11.562;2023-02-11T14:24:56;7.30;99.90
4604;DHT22;2314;48.272;11.562;2023-02-11T14:27:29;7.30;99.90
4604;DHT22;2314;48.272;11.562;2023-02-11T14:30:19;7.30;99.90
4604;DHT22;2314;48.272;11.562;2023-02-11T14:33:29;7.20;99.90
4604;DHT22;2314;48.272;11.562;2023-02-11T14:36:13;7.20;99.90
4604;DHT22;2314;48.272;11.562;2023-02-11T14:38:57;7.20;99.90
4604;DHT22;2314;48.272;11.562;2023-02-11T14:41:28;7.00;99.90
4604;DHT22;2314;48.272;11.562;2023-02-11T14:44:02;7.00;99.90
4604;DHT22;2314;48.272;11.562;2023-02-11T14:46:31;7.00;99.90
4604;DHT22;2314;48.272;11.562;2023-02-11T14:49:00;7.10;99.90
4604;DHT22;2314;48.272;11.562;2023-02-11T14:51:30;7.10;99.90
4604;DHT22;2314;48.272;11.562;2023-02-11T14:54:03;7.10;99.90
4604;DHT22;2314;48.272;11.562;2023-02-11T14:56:40;7.00;99.90
4604;DHT22;2314;48.272;11.562;2023-02-11T14:59:17;7.10;99.90
4604;DHT22;2314;48.272;11.562;2023-02-11T15:01:48;7.00;99.90
4604;DHT22;2314;48.272;11.562;2023-02-11T15:04:24;7.10;99.90
4604;DHT22;2314;48.272;11.562;2023-02-11T15:06:52;7.00;99.90
4604;DHT22;2314;48.272;11.562;2023-02-11T15:09:22;6.80;99.90
4604;DHT22;2314;48.272;11.562;2023-02-11T15:11:58;6.80;99.90
4604;DHT22;2314;48.272;11.562;2023-02-11T15:14:30;6.70;99.90
4604;DHT22;2314;48.272;11.562;2023-02-11T15:17:01;6.70;99.90
4604;DHT22;2314;48.272;11.562;2023-02-11T15:19:31;6.60;99.90
4604;DHT22;2314;48.272;11.562;2023-02-11T15:22:01;6.50;99.90
4604;DHT22;2314;48.272;11.562;2023-02-11T15:24:32;6.40;99.90
4604;DHT22;2314;48.272;11.562;2023-02-11T15:27:02;6.30;99.90
4604;DHT22;2314;48.272;11.562;2023-02-11T15:29:39;6.30;99.90
4604;DHT22;2314;48.272;11.562;2023-02-11T15:32:13;6.30;99.90
4604;DHT22;2314;48.272;11.562;2023-02-11T15:34:42;6.30;99.90
4604;DHT22;2314;48.272;11.562;2023-02-11T15:37:12;6.10;99.90
4604;DHT22;2314;48.272;11.562;2023-02-11T15:39:41;6.10;99.90
4604;DHT22;2314;48.272;11.562;2023-02-11T15:42:19;6.00;99.90
4604;DHT22;2314;48.272;11.562;2023-02-11T15:45:08;6.00;99.90
4604;DHT22;2314;48.272;11.562;2023-02-11T15:47:38;5.90;99.90
4604;DHT22;2314;48.272;11.562;2023-02-11T15:50:18;5.90;99.90
4604;DHT22;2314;48.272;11.562;2023-02-11T15:52:46;5.80;99.90
4604;DHT22;2314;48.272;11.562;2023-02-11T15:55:15;5.80;99.90
4604;DHT22;2314;48.272;11.562;2023-02-11T15:57:45;5.80;99.90
4604;DHT22;2314;48.272;11.562;2023-02-11T16:00:19;5.80;99.90
4604;DHT22;2314;48.272;11.562;2023-02-11T16:02:48;5.80;99.90
4604;DHT22;2314;48.272;11.562;2023-02-11T16:05:25;5.70;99.90
4604;DHT22;2314;48.272;11.562;2023-02-11T16:07:54;5.70;99.90
4604;DHT22;2314;48.272;11.562;2023-02-11T16:10:24;5.60;99.90
4604;DHT22;2314;48.272;11.562;2023-02-11T16:12:58;5.50;99.90
4604;DHT22;2314;48.272;11.562;2023-02-11T16:15:41;5.40;99.90
4604;DHT22;2314;48.272;11.562;2023-02-11T16:18:29;5.30;99.90
4604;DHT22;2314;48.272;11.562;2023-02-11T16:20:59;5.20;99.90
4604;DHT22;2314;48.272;11.562;2023-02-11T16:23:28;5.10;99.90
4604;DHT22;2314;48.272;11.562;2023-02-11T16:26:01;5.10;99.90
4604;DHT22;2314;48.272;11.562;2023-02-11T16:28:33;5.00;99.90
4604;DHT22;2314;48.272;11.562;2023-02-11T16:31:03;4.90;99.90
4604;DHT22;2314;48.272;11.562;2023-02-11T16:33:31;4.80;99.90
4604;DHT22;2314;48.272;11.562;2023-02-11T16:35:58;4.70;99.90
4604;DHT22;2314;48.272;11.562;2023-02-11T16:38:27;4.60;99.90
4604;DHT22;2314;48.272;11.562;2023-02-11T16:40:55;4.40;99.90
4604;DHT22;2314;48.272;11.562;2023-02-11T16:43:22;4.30;99.90
4604;DHT22;2314;48.272;11.562;2023-02-11T16:45:49;4.20;99.90
4604;DHT22;2314;48.272;11.562;2023-02-11T16:48:19;4.10;99.90